Time;durP1;ratioP1;P1;durP2;ratioP2;P2;SDS_P1;SDS_P2;PMS_P1;PMS_P2;Temp;Humidity;BMP_temperature;BMP_pressure;BME280_temperature;BME280_humidity;BME280_pressure;Samples;Min_cycle;Max_cycle;Signal;HPM_P1;HPM_P2
2021/12/24 00:01:06;;;;;;;21.98;14.57;;;;;;;10.41;79.76;100552.88;4937547;29;20060;-66
2021/12/24 00:03:34;;;;;;;23.15;14.60;;;;;;;10.46;80.02;100546.44;4937534;29;20155;-66
2021/12/24 00:06:04;;;;;;;23.77;15.20;;;;;;;10.56;79.78;100562.69;4936489;29;20051;-66
2021/12/24 00:08:31;;;;;;;25.67;16.20;;;;;;;10.20;80.84;100558.09;4936536;29;20059;-65
2021/12/24 00:11:01;;;;;;;22.08;14.75;;;;;;;10.32;81.02;100556.72;4937689;29;20385;-66
2021/12/24 00:13:34;;;;;;;26.23;14.77;;;;;;;10.34;80.43;100557.22;4937706;29;20056;-66
2021/12/24 00:16:28;;;;;;;22.15;14.73;;;;;;;10.57;79.98;100548.59;4936168;29;20088;-65
2021/12/24 00:18:58;;;;;;;24.33;15.45;;;;;;;10.51;79.66;100552.63;4937067;29;20500;-65
2021/12/24 00:37:49;;;;;;;25.48;15.48;;;;;;;10.41;80.56;100530.84;4900163;29;20060;-65
2021/12/24 00:40:18;;;;;;;23.73;15.57;;;;;;;10.47;79.75;100521.34;4933185;29;20067;-66
2021/12/24 00:42:51;;;;;;;30.02;15.65;;;;;;;10.40;80.34;100520.97;4937236;29;20052;-66
2021/12/24 00:45:25;;;;;;;22.27;15.02;;;;;;;10.51;79.94;100511.31;4937328;29;20051;-65
2021/12/24 00:47:53;;;;;;;23.75;15.40;;;;;;;10.36;80.32;100513.66;4937558;29;20166;-65
2021/12/24 00:50:25;;;;;;;28.10;16.65;;;;;;;10.38;80.46;100514.16;4937575;29;20047;-66
2021/12/24 00:55:02;;;;;;;30.52;16.77;;;;;;;10.39;80.16;100513.03;4935902;29;20505;-66
2021/12/24 00:55:50;;;;;;;24.98;16.65;;;;;;;10.41;80.46;100499.75;4935895;29;20518;-66
2021/12/24 00:58:18;;;;;;;23.67;16.08;;;;;;;10.15;81.02;100492.19;4937823;29;20502;-66
2021/12/24 01:00:45;;;;;;;25.73;16.77;;;;;;;10.15;81.33;100486.69;4940237;29;20407;-65
2021/12/24 01:03:12;;;;;;;25.95;16.88;;;;;;;10.31;80.55;100478.81;4925108;29;20055;-65
2021/12/24 01:05:40;;;;;;;23.67;14.70;;;;;;;10.39;80.23;100469.78;4918507;29;20071;-65
2021/12/24 01:08:10;;;;;;;23.65;15.50;;;;;;;10.38;79.70;100470.91;4918539;29;20060;-65
2021/12/24 01:10:41;;;;;;;22.75;14.82;;;;;;;10.29;80.17;100467.31;4918227;29;20063;-66
2021/12/24 01:13:09;;;;;;;22.98;16.02;;;;;;;10.44;80.11;100471.59;4918073;29;20063;-65
2021/12/24 01:15:42;;;;;;;21.67;14.63;;;;;;;10.43;79.66;100469.94;4902140;29;20063;-65
2021/12/24 01:18:18;;;;;;;27.95;16.65;;;;;;;10.23;80.46;100472.13;4921746;29;20162;-65
2021/12/24 01:20:51;;;;;;;23.65;15.80;;;;;;;10.28;80.44;100473.97;4920568;29;20040;-65
2021/12/24 01:23:36;;;;;;;22.52;15.10;;;;;;;10.41;79.92;100472.22;4921472;29;20060;-65
2021/12/24 01:26:12;;;;;;;23.67;15.23;;;;;;;10.43;80.13;100470.78;4920159;29;20059;-65
2021/12/24 01:45:00;;;;;;;25.83;15.55;;;;;;;9.83;83.13;100473.19;4919807;29;19923;-65
2021/12/24 01:47:27;;;;;;;23.05;15.68;;;;;;;9.87;82.68;100470.63;4889010;29;20531;-65
2021/12/24 01:49:55;;;;;;;24.70;15.90;;;;;;;10.00;82.19;100481.56;4919964;29;20600;-65
2021/12/24 01:52:23;;;;;;;26.45;15.90;;;;;;;10.06;81.54;100476.72;4904073;29;20051;-65
2021/12/24 01:54:54;;;;;;;28.50;16.55;;;;;;;9.82;82.10;100477.06;4919864;29;20056;-65
2021/12/24 01:57:22;;;;;;;24.35;15.93;;;;;;;9.91;82.42;100469.69;4919825;29;20408;-65
2021/12/24 01:59:49;;;;;;;25.55;15.65;;;;;;;9.87;82.29;100465.13;4919980;29;20052;-65
2021/12/24 02:02:17;;;;;;;27.33;16.23;;;;;;;9.71;82.92;100472.94;4907204;29;20063;-65
2021/12/24 02:04:44;;;;;;;30.40;16.65;;;;;;;9.77;83.14;100471.69;4938612;29;20526;-65
2021/12/24 02:07:12;;;;;;;24.42;15.88;;;;;;;10.01;81.91;100476.84;4939905;29;20439;-65
2021/12/24 02:09:39;;;;;;;28.65;16.45;;;;;;;9.76;82.51;100489.31;4938456;29;20504;-65
2021/12/24 02:12:09;;;;;;;25.77;16.23;;;;;;;9.85;82.62;100476.44;4938648;29;20051;-65
2021/12/24 02:14:39;;;;;;;24.77;16.52;;;;;;;9.94;82.49;100482.00;4954265;29;20623;-66
2021/12/24 02:28:45;;;;;;;24.05;16.48;;;;;;;9.96;82.30;100441.22;4938382;29;20059;-64
2021/12/24 02:31:10;;;;;;;24.42;15.82;;;;;;;9.77;82.71;100446.13;4937076;29;20070;-66
2021/12/24 02:33:38;;;;;;;25.35;16.17;;;;;;;9.83;83.11;100447.63;4937724;29;20066;-66
2021/12/24 02:36:06;;;;;;;23.50;16.25;;;;;;;9.98;82.79;100441.72;4938728;29;20063;-65
2021/12/24 02:38:34;;;;;;;23.73;15.77;;;;;;;9.90;82.58;100443.28;4953946;29;20062;-65
2021/12/24 02:41:02;;;;;;;26.77;16.20;;;;;;;9.77;83.50;100435.94;4953786;28;20063;-65
2021/12/24 02:43:29;;;;;;;23.30;15.82;;;;;;;9.77;83.61;100435.13;4937685;29;20522;-64
2021/12/24 02:46:06;;;;;;;25.65;16.38;;;;;;;9.81;83.35;100433.38;4937767;29;20051;-65
2021/12/24 02:54:01;;;;;;;24.25;16.23;;;;;;;9.85;83.43;100426.91;4938668;29;20055;-65
2021/12/24 02:56:38;;;;;;;28.00;16.35;;;;;;;9.99;82.63;100424.06;4938904;29;20060;-65
2021/12/24 02:59:10;;;;;;;28.67;17.02;;;;;;;10.06;82.98;100422.50;4936991;29;20052;-66
2021/12/24 03:01:41;;;;;;;25.90;16.75;;;;;;;9.73;83.32;100426.69;4937767;29;20051;-66
2021/12/24 03:04:10;;;;;;;26.83;16.83;;;;;;;9.61;84.14;100439.38;4903789;29;20079;-64
2021/12/24 03:06:40;;;;;;;26.40;17.13;;;;;;;9.78;83.84;100442.28;4919814;29;20052;-65
2021/12/24 03:09:12;;;;;;;26.17;16.13;;;;;;;9.86;83.68;100431.31;4918327;29;20066;-65
2021/12/24 03:11:40;;;;;;;24.50;16.35;;;;;;;10.03;82.68;100425.88;4918480;29;20063;-65
2021/12/24 03:14:08;;;;;;;23.02;15.85;;;;;;;9.89;82.87;100430.66;4918168;29;20056;-65
2021/12/24 03:16:37;;;;;;;24.45;16.38;;;;;;;9.94;82.50;100430.53;4918175;29;20052;-65
2021/12/24 03:19:07;;;;;;;25.33;16.40;;;;;;;9.92;82.71;100430.03;4902480;29;20060;-65
2021/12/24 03:21:49;;;;;;;24.42;16.17;;;;;;;10.04;82.26;100426.72;4919759;29;20051;-65
2021/12/24 03:26:46;;;;;;;24.60;16.08;;;;;;;10.03;81.88;100419.56;4919652;29;20056;-65
2021/12/24 03:29:15;;;;;;;26.15;17.02;;;;;;;9.99;81.96;100407.56;4918127;29;20043;-65
2021/12/24 03:31:43;;;;;;;25.35;16.48;;;;;;;10.08;81.78;100397.41;4902538;29;20060;-65
2021/12/24 03:34:13;;;;;;;24.17;16.10;;;;;;;10.05;82.02;100398.88;4919047;29;20082;-65
2021/12/24 03:36:42;;;;;;;27.38;17.50;;;;;;;10.06;81.54;100394.97;4902474;29;20060;-66
2021/12/24 03:39:12;;;;;;;27.05;17.35;;;;;;;9.93;82.16;100403.34;4917532;29;20513;-64
2021/12/24 03:41:40;;;;;;;27.92;16.80;;;;;;;9.97;82.69;100413.38;4919222;29;20052;-66
2021/12/24 03:44:09;;;;;;;27.50;17.08;;;;;;;10.02;82.32;100405.00;4917687;29;20048;-67
2021/12/24 03:46:54;;;;;;;26.55;17.23;;;;;;;9.99;82.01;100396.56;4901845;29;20051;-65
2021/12/24 03:55:04;;;;;;;25.13;16.38;;;;;;;10.03;82.17;100395.63;4917453;29;20060;-65
2021/12/24 03:57:40;;;;;;;25.90;15.32;;;;;;;10.19;81.49;100385.84;4917718;29;20056;-65
2021/12/24 04:00:27;;;;;;;26.50;15.98;;;;;;;10.18;81.63;100377.91;4918738;29;20468;-65
2021/12/24 04:03:18;;;;;;;25.20;15.93;;;;;;;10.16;81.52;100380.16;4892265;29;20060;-65
2021/12/24 04:06:04;;;;;;;25.70;16.63;;;;;;;10.34;81.13;100379.06;4918839;29;20055;-65
2021/12/24 04:09:07;;;;;;;23.38;15.57;;;;;;;10.37;80.73;100372.13;4886367;29;20528;-65
2021/12/24 04:11:45;;;;;;;24.02;15.48;;;;;;;10.44;80.67;100369.72;4914774;29;20060;-65
2021/12/24 04:14:12;;;;;;;24.45;15.95;;;;;;;10.38;80.52;100363.53;4917316;29;20519;-65
2021/12/24 04:16:40;;;;;;;24.50;15.82;;;;;;;10.31;80.98;100365.94;4917547;29;20070;-65
2021/12/24 04:19:35;;;;;;;23.95;15.07;;;;;;;10.20;81.27;100359.13;4917882;29;20051;-66
2021/12/24 04:24:53;;;;;;;21.63;15.82;;;;;;;10.24;81.67;100351.84;4917148;29;20068;-64
2021/12/24 04:27:24;;;;;;;24.25;16.48;;;;;;;10.26;81.79;100344.09;4933332;29;20056;-65
2021/12/24 04:30:00;;;;;;;22.60;15.07;;;;;;;10.28;81.84;100333.56;4917007;29;20056;-66
2021/12/24 04:32:40;;;;;;;26.42;16.10;;;;;;;10.27;82.01;100326.44;4917480;29;20060;-65
2021/12/24 04:35:31;;;;;;;25.33;15.85;;;;;;;10.16;82.72;100338.88;4917207;29;20052;-65
2021/12/24 04:38:43;;;;;;;27.38;15.65;;;;;;;10.14;83.33;100330.94;4933270;29;20056;-65
2021/12/24 04:52:11;;;;;;;25.67;16.45;;;;;;;9.89;83.56;100325.31;4907149;29;20052;-66
2021/12/24 05:03:23;;;;;;;27.98;16.80;;;;;;;9.82;84.26;100320.28;4932573;29;20133;-65
2021/12/24 05:06:01;;;;;;;30.20;16.90;;;;;;;9.62;85.39;100318.13;4939940;29;20055;-65
2021/12/24 05:08:39;;;;;;;23.05;15.57;;;;;;;9.79;85.33;100320.94;4939668;29;20051;-65
2021/12/24 05:11:10;;;;;;;25.20;15.63;;;;;;;10.05;84.43;100332.00;4955848;29;20052;-65
2021/12/24 05:13:39;;;;;;;27.77;16.45;;;;;;;9.97;83.88;100324.56;4939501;29;20067;-65
2021/12/24 05:16:47;;;;;;;21.50;15.57;;;;;;;9.87;84.59;100320.13;4938925;29;20067;-66
2021/12/24 05:22:13;;;;;;;22.85;15.80;;;;;;;9.99;84.47;100317.59;4940628;29;20127;-65
2021/12/24 05:24:41;;;;;;;24.65;16.02;;;;;;;10.11;84.11;100311.50;4939945;29;20055;-66
2021/12/24 05:27:08;;;;;;;24.70;15.48;;;;;;;10.16;83.96;100311.38;4940500;29;20055;-65
2021/12/24 05:29:36;;;;;;;27.10;15.55;;;;;;;10.15;84.00;100301.47;4955099;29;20430;-66
2021/12/24 05:32:04;;;;;;;23.60;16.48;;;;;;;10.12;84.33;100299.38;4939137;29;20059;-66
2021/12/24 05:34:31;;;;;;;27.42;16.10;;;;;;;10.16;84.62;100297.59;4938564;29;20055;-66
2021/12/24 05:36:59;;;;;;;27.80;16.77;;;;;;;10.04;84.92;100305.63;4938840;29;20491;-65
2021/12/24 05:39:28;;;;;;;34.03;16.20;;;;;;;10.13;84.90;100299.03;4939059;29;20052;-65
2021/12/24 05:41:56;;;;;;;24.63;16.23;;;;;;;10.10;85.29;100307.94;4938911;29;20422;-65
2021/12/24 05:44:24;;;;;;;27.15;16.33;;;;;;;9.96;86.52;100300.91;4938738;29;20070;-65
2021/12/24 05:47:02;;;;;;;25.58;15.55;;;;;;;9.96;86.67;100301.72;4938888;29;20051;-65
2021/12/24 05:49:41;;;;;;;24.40;15.90;;;;;;;9.80;87.92;100310.72;4954850;29;20626;-65
2021/12/24 05:52:44;;;;;;;22.55;16.13;;;;;;;9.87;88.11;100313.81;4918570;29;20052;-65
2021/12/24 05:55:21;;;;;;;21.92;15.07;;;;;;;10.02;87.93;100322.44;4916917;29;20051;-65
2021/12/24 05:57:55;;;;;;;26.67;15.57;;;;;;;10.06;87.36;100317.13;4938863;29;20082;-65
2021/12/24 06:00:22;;;;;;;23.35;16.27;;;;;;;10.07;87.74;100319.56;4938207;29;20052;-65
2021/12/24 06:02:50;;;;;;;24.75;16.20;;;;;;;10.02;87.72;100321.66;4930896;29;20531;-65
2021/12/24 06:05:17;;;;;;;23.70;15.45;;;;;;;10.20;87.47;100315.91;4920519;29;20506;-66
2021/12/24 06:07:45;;;;;;;27.10;15.60;;;;;;;10.17;87.46;100323.97;4921098;29;20048;-65
2021/12/24 06:10:12;;;;;;;26.88;15.85;;;;;;;10.24;86.69;100318.81;4920883;29;20079;-65
2021/12/24 06:12:39;;;;;;;22.85;14.85;;;;;;;10.13;87.57;100325.75;4920985;29;20055;-65
2021/12/24 06:15:08;;;;;;;21.33;14.88;;;;;;;10.11;87.83;100328.03;4920386;29;20048;-65
2021/12/24 06:17:38;;;;;;;24.90;15.40;;;;;;;10.19;87.70;100324.47;4920824;29;20063;-66
2021/12/24 06:20:07;;;;;;;23.45;16.02;;;;;;;10.06;88.81;100326.19;4919556;29;20240;-64
2021/12/24 06:22:34;;;;;;;26.00;15.57;;;;;;;10.14;88.81;100321.88;4920735;29;20052;-65
2021/12/24 06:25:03;;;;;;;22.23;16.13;;;;;;;10.12;89.16;100324.13;4920436;29;20056;-65
2021/12/24 06:27:30;;;;;;;22.80;16.13;;;;;;;10.04;89.59;100317.44;4919198;29;20064;-66
2021/12/24 06:29:57;;;;;;;30.75;16.10;;;;;;;10.15;90.00;100315.22;4918970;29;20155;-65
2021/12/24 06:32:26;;;;;;;22.33;15.57;;;;;;;10.20;89.77;100313.13;4919421;29;20059;-66
2021/12/24 06:34:54;;;;;;;22.17;15.73;;;;;;;10.13;90.14;100314.72;4920144;29;20059;-65
2021/12/24 06:37:21;;;;;;;24.40;15.88;;;;;;;10.22;90.03;100301.81;4920800;29;20064;-66
2021/12/24 06:39:48;;;;;;;21.50;15.20;;;;;;;10.21;90.13;100291.94;4920313;29;20059;-65
2021/12/24 06:42:15;;;;;;;21.95;14.75;;;;;;;10.29;90.33;100299.41;4920530;29;20056;-64
2021/12/24 06:44:43;;;;;;;20.20;14.05;;;;;;;10.32;90.08;100296.00;4917987;29;20463;-65
2021/12/24 06:47:11;;;;;;;20.60;14.32;;;;;;;10.34;90.46;100295.69;4920476;29;20056;-66
2021/12/24 06:49:38;;;;;;;21.75;14.10;;;;;;;10.37;90.01;100293.09;4920382;29;20067;-67
2021/12/24 06:52:06;;;;;;;18.15;13.50;;;;;;;10.40;90.27;100294.38;4920298;29;20539;-66
2021/12/24 06:54:33;;;;;;;24.23;14.55;;;;;;;10.24;90.59;100296.78;4918594;29;20048;-66
2021/12/24 06:57:12;;;;;;;20.60;13.95;;;;;;;10.19;91.47;100296.97;4918858;29;20060;-66
2021/12/24 06:59:41;;;;;;;21.75;13.32;;;;;;;10.19;92.07;100295.03;4904515;29;20058;-66
2021/12/24 07:02:09;;;;;;;19.30;12.93;;;;;;;10.29;91.76;100293.88;4921026;29;20058;-66
2021/12/24 07:04:36;;;;;;;19.60;13.15;;;;;;;10.46;91.24;100296.66;4937558;29;20063;-65
2021/12/24 07:07:09;;;;;;;17.80;11.48;;;;;;;10.45;90.96;100294.22;4938627;29;20051;-66
2021/12/24 07:09:42;;;;;;;16.75;11.63;;;;;;;10.30;91.39;100290.03;4939047;29;20086;-66
2021/12/24 07:12:14;;;;;;;16.23;11.60;;;;;;;10.18;92.20;100287.09;4939299;29;20499;-66
2021/12/24 07:14:41;;;;;;;15.45;10.77;;;;;;;10.13;93.37;100290.78;4937308;29;20058;-67
2021/12/24 07:17:09;;;;;;;14.07;9.68;;;;;;;10.31;92.48;100288.06;4938539;29;20543;-66
2021/12/24 07:19:36;;;;;;;15.27;10.25;;;;;;;10.13;93.67;100289.97;4937210;29;20074;-65
2021/12/24 07:22:04;;;;;;;16.95;11.75;;;;;;;10.31;92.71;100293.56;4939501;29;20452;-65
2021/12/24 07:24:31;;;;;;;14.50;10.65;;;;;;;10.36;92.77;100288.72;4938697;29;20463;-65
2021/12/24 07:27:01;;;;;;;17.23;12.23;;;;;;;10.25;92.90;100286.59;4952989;29;20505;-65
2021/12/24 07:29:28;;;;;;;15.00;9.73;;;;;;;10.19;93.32;100289.50;4938322;29;20059;-65
2021/12/24 07:31:56;;;;;;;13.45;9.48;;;;;;;10.34;93.21;100279.19;4938354;29;20062;-66
2021/12/24 07:34:23;;;;;;;12.43;8.15;;;;;;;10.27;92.92;100276.09;4938621;29;20079;-65
2021/12/24 07:36:51;;;;;;;11.15;7.97;;;;;;;10.21;93.83;100269.94;4938619;29;20120;-66
2021/12/24 07:39:18;;;;;;;10.98;7.30;;;;;;;10.27;93.12;100274.13;4938960;29;20542;-65
2021/12/24 07:41:47;;;;;;;10.88;7.35;;;;;;;10.43;92.85;100280.78;4938812;29;20059;-66
2021/12/24 07:44:18;;;;;;;13.50;7.35;;;;;;;10.41;92.32;100290.53;4937192;29;20051;-67
2021/12/24 07:46:50;;;;;;;9.82;6.10;;;;;;;10.72;91.99;100288.41;4936524;29;20048;-65
2021/12/24 07:49:41;;;;;;;10.65;7.00;;;;;;;10.62;90.47;100292.28;4938209;29;20063;-65
2021/12/24 07:52:11;;;;;;;10.25;6.50;;;;;;;10.44;91.40;100284.34;4938223;29;20063;-65
2021/12/24 07:54:42;;;;;;;9.82;6.40;;;;;;;10.41;91.64;100294.06;4936831;29;20055;-66
2021/12/24 07:57:12;;;;;;;12.07;6.28;;;;;;;10.54;91.24;100295.03;4938027;29;20082;-66
2021/12/24 07:59:41;;;;;;;10.55;7.10;;;;;;;10.56;90.95;100284.53;4938015;29;20047;-66
2021/12/24 08:02:18;;;;;;;12.38;6.78;;;;;;;10.53;91.24;100293.44;4934347;29;20059;-65
2021/12/24 08:04:46;;;;;;;10.45;5.88;;;;;;;10.55;90.74;100283.72;4919458;29;20060;-66
2021/12/24 08:07:14;;;;;;;11.00;5.88;;;;;;;10.71;90.49;100278.53;4918518;29;20056;-66
2021/12/24 08:09:42;;;;;;;9.57;6.22;;;;;;;10.56;90.44;100274.34;4917578;29;20400;-66
2021/12/24 08:12:11;;;;;;;9.80;6.43;;;;;;;10.46;90.66;100269.13;4918780;29;20446;-65
2021/12/24 08:14:39;;;;;;;12.73;8.10;;;;;;;10.50;91.10;100263.78;4919459;29;20083;-67
2021/12/24 08:17:06;;;;;;;11.52;6.50;;;;;;;10.43;91.43;100269.78;4917210;29;20056;-65
2021/12/24 08:19:34;;;;;;;28.70;16.83;;;;;;;10.68;90.86;100254.38;4918553;29;20612;-65
2021/12/24 08:22:01;;;;;;;46.90;34.67;;;;;;;10.70;89.76;100261.19;4918928;29;20067;-66
2021/12/24 08:24:30;;;;;;;13.90;8.60;;;;;;;10.58;90.31;100262.97;4919119;29;20063;-66
2021/12/24 08:26:58;;;;;;;13.10;6.85;;;;;;;10.44;91.46;100279.66;4921699;29;20056;-65
2021/12/24 08:29:25;;;;;;;13.98;8.13;;;;;;;10.44;92.15;100276.09;4922744;29;20044;-65
2021/12/24 08:31:53;;;;;;;28.50;20.42;;;;;;;10.66;91.03;100273.19;4922871;29;20048;-67
2021/12/24 08:34:21;;;;;;;15.50;11.35;;;;;;;10.59;90.88;100270.09;4922890;29;20060;-66
2021/12/24 08:36:50;;;;;;;10.23;7.50;;;;;;;10.71;90.78;100268.31;4921267;29;20044;-65
2021/12/24 08:39:19;;;;;;;10.60;6.83;;;;;;;10.67;90.55;100264.59;4921275;29;20154;-65
2021/12/24 08:41:49;;;;;;;10.13;6.93;;;;;;;10.59;91.22;100259.09;4922770;29;20303;-66
2021/12/24 08:44:16;;;;;;;10.98;7.03;;;;;;;10.59;90.53;100254.41;4922669;29;20067;-65
2021/12/24 08:46:43;;;;;;;11.70;6.97;;;;;;;10.69;90.95;100256.81;4922126;29;20062;-66
2021/12/24 08:49:11;;;;;;;9.90;6.82;;;;;;;10.77;90.75;100238.66;4922466;29;20059;-66
2021/12/24 08:51:38;;;;;;;11.38;7.43;;;;;;;10.84;90.30;100242.56;4921166;29;20048;-66
2021/12/24 08:54:06;;;;;;;13.43;9.57;;;;;;;10.83;90.21;100246.44;4922223;29;20508;-66
2021/12/24 08:56:34;;;;;;;20.20;13.00;;;;;;;11.03;89.87;100254.03;4904842;29;20053;-66
2021/12/24 08:59:01;;;;;;;16.73;12.43;;;;;;;11.09;89.26;100249.94;4922156;29;20420;-67
2021/12/24 09:01:28;;;;;;;38.53;26.77;;;;;;;11.01;89.13;100252.72;4920660;29;20070;-67
2021/12/24 09:03:56;;;;;;;14.95;7.90;;;;;;;10.79;90.60;100250.97;4936909;29;20106;-66
2021/12/24 09:06:24;;;;;;;12.02;8.02;;;;;;;10.79;91.27;100248.22;4941015;29;20151;-66
2021/12/24 09:08:51;;;;;;;11.85;8.07;;;;;;;10.89;90.51;100255.34;4941021;29;20208;-66
2021/12/24 09:11:18;;;;;;;13.20;7.72;;;;;;;11.11;90.41;100257.88;4941011;29;20605;-66
2021/12/24 09:13:46;;;;;;;11.05;7.47;;;;;;;10.99;90.15;100253.06;4941099;29;20080;-66
2021/12/24 09:16:13;;;;;;;12.35;7.60;;;;;;;11.01;89.94;100259.06;4940684;29;20044;-67
2021/12/24 09:18:43;;;;;;;15.45;8.43;;;;;;;10.96;90.08;100255.66;4941096;29;20048;-66
2021/12/24 09:21:15;;;;;;;12.70;8.18;;;;;;;10.83;91.08;100260.19;4940970;29;20055;-66
2021/12/24 09:23:46;;;;;;;12.10;8.20;;;;;;;10.92;91.34;100255.50;4955428;28;20055;-68
2021/12/24 09:26:23;;;;;;;11.88;7.85;;;;;;;10.89;91.15;100258.09;4940602;29;20052;-67
2021/12/24 09:28:50;;;;;;;11.60;8.15;;;;;;;10.95;90.84;100268.63;4954546;29;20048;-67
2021/12/24 09:31:18;;;;;;;11.57;8.35;;;;;;;10.90;90.99;100271.53;4940605;29;20052;-68
2021/12/24 09:33:45;;;;;;;12.55;8.48;;;;;;;10.97;90.63;100266.34;4940786;29;20055;-69
2021/12/24 09:36:13;;;;;;;11.48;8.27;;;;;;;10.85;91.67;100266.19;4940189;29;20052;-68
2021/12/24 09:38:40;;;;;;;31.50;21.35;;;;;;;11.04;91.27;100266.66;4954858;28;20059;-68
2021/12/24 09:41:07;;;;;;;21.13;13.60;;;;;;;11.08;90.61;100258.53;4940764;29;20055;-68
2021/12/24 09:43:35;;;;;;;13.40;9.45;;;;;;;11.12;90.83;100254.78;4940668;29;20055;-69
2021/12/24 09:46:02;;;;;;;13.63;9.48;;;;;;;11.26;90.60;100254.63;4954661;28;20043;-68
2021/12/24 09:48:29;;;;;;;35.58;21.45;;;;;;;11.35;89.59;100245.16;4940326;29;20046;-67
2021/12/24 09:50:57;;;;;;;26.20;18.40;;;;;;;11.41;88.92;100251.31;4940351;29;20047;-67
2021/12/24 09:53:24;;;;;;;15.52;10.98;;;;;;;11.51;88.19;100256.44;4940565;29;20067;-67
2021/12/24 09:55:52;;;;;;;13.60;8.48;;;;;;;11.29;89.09;100257.53;4938587;29;20060;-68
2021/12/24 09:58:19;;;;;;;12.48;8.45;;;;;;;11.38;89.66;100253.91;4940354;29;20124;-68
2021/12/24 10:00:46;;;;;;;14.68;8.68;;;;;;;11.38;89.42;100254.72;4940288;29;20063;-70
2021/12/24 10:03:35;;;;;;;15.38;9.50;;;;;;;11.52;88.83;100237.97;4929590;29;20056;-68
2021/12/24 10:06:04;;;;;;;13.65;9.60;;;;;;;11.49;89.03;100239.41;4921108;29;20412;-68
2021/12/24 10:08:32;;;;;;;13.43;9.20;;;;;;;11.61;88.43;100230.47;4919343;29;20063;-68
2021/12/24 10:11:05;;;;;;;15.48;9.70;;;;;;;11.47;88.16;100236.22;4920972;29;20063;-67
2021/12/24 10:13:38;;;;;;;15.70;9.75;;;;;;;11.69;87.85;100240.66;4921454;29;20056;-67
2021/12/24 10:16:25;;;;;;;14.18;10.02;;;;;;;11.74;87.46;100244.06;4920605;29;20055;-68
2021/12/24 10:18:55;;;;;;;13.88;8.85;;;;;;;11.98;86.25;100240.66;4920642;29;20060;-67
2021/12/24 10:21:29;;;;;;;13.98;9.57;;;;;;;11.68;87.33;100248.13;4919563;29;20048;-69
2021/12/24 10:24:02;;;;;;;18.80;11.43;;;;;;;11.99;86.35;100228.50;4920514;29;20059;-68
2021/12/24 10:26:31;;;;;;;13.68;9.13;;;;;;;12.07;85.46;100231.19;4920346;29;20059;-69
2021/12/24 10:29:07;;;;;;;14.60;9.95;;;;;;;11.89;86.08;100220.59;4919204;29;20056;-69
2021/12/24 10:31:40;;;;;;;24.48;15.95;;;;;;;11.99;85.31;100223.78;4920951;29;20060;-68
2021/12/24 10:34:30;;;;;;;25.38;17.38;;;;;;;11.79;85.68;100213.50;4919116;29;20436;-68
2021/12/24 10:37:01;;;;;;;;;;;;;;;11.87;85.73;100212.63;4919461;29;20052;-68
2021/12/24 10:39:51;;;;;;;15.25;10.20;;;;;;;11.76;86.43;100194.88;4920130;29;19931;-70
2021/12/24 10:42:37;;;;;;;15.73;9.85;;;;;;;11.73;86.19;100201.06;4920453;29;20056;-69
2021/12/24 10:45:08;;;;;;;15.82;9.57;;;;;;;11.58;87.49;100192.50;4920169;29;20059;-68
2021/12/24 10:47:39;;;;;;;14.38;9.32;;;;;;;11.79;86.76;100199.72;4919751;29;20063;-69
2021/12/24 10:53:14;;;;;;;14.50;10.00;;;;;;;12.06;85.80;100201.97;4920149;29;20054;-68
2021/12/24 10:55:53;;;;;;;14.40;9.50;;;;;;;11.98;85.66;100196.50;4918870;29;20064;-68
2021/12/24 10:58:23;;;;;;;15.88;9.15;;;;;;;11.82;86.69;100195.50;4919819;29;20408;-67
2021/12/24 11:00:55;;;;;;;23.05;14.13;;;;;;;11.76;87.35;100199.56;4920120;29;20422;-67
2021/12/24 11:03:28;;;;;;;15.85;10.35;;;;;;;11.91;86.45;100186.00;4931852;29;20051;-70
2021/12/24 11:06:06;;;;;;;17.48;11.05;;;;;;;11.82;86.28;100184.44;4939166;29;20059;-69
2021/12/24 11:08:34;;;;;;;21.42;14.35;;;;;;;11.86;86.84;100166.06;4937543;29;20055;-68
2021/12/24 11:11:04;;;;;;;18.55;12.23;;;;;;;12.23;85.89;100177.00;4936796;29;20055;-68
2021/12/24 11:13:44;;;;;;;13.90;9.73;;;;;;;11.99;85.64;100168.59;4937431;29;20056;-69
2021/12/24 11:16:19;;;;;;;13.73;9.18;;;;;;;11.83;86.65;100151.00;4936891;29;20066;-69
2021/12/24 11:19:01;;;;;;;14.93;9.38;;;;;;;11.87;87.21;100151.13;4921367;29;20043;-68
2021/12/24 11:21:30;;;;;;;18.58;10.68;;;;;;;11.77;87.51;100151.53;4936805;29;20070;-68
2021/12/24 11:23:58;;;;;;;50.50;34.30;;;;;;;11.97;86.89;100140.50;4953047;28;20161;-69
2021/12/24 11:26:28;;;;;;;23.08;16.48;;;;;;;11.77;87.73;100152.31;4936908;29;20052;-69
2021/12/24 11:28:56;;;;;;;17.70;12.75;;;;;;;11.81;87.41;100149.72;4938568;29;20055;-67
2021/12/24 11:31:27;;;;;;;21.77;14.65;;;;;;;11.78;87.33;100142.94;4953051;29;20348;-67
2021/12/24 11:33:55;;;;;;;28.77;18.65;;;;;;;11.81;86.99;100136.72;4937213;29;20063;-68
2021/12/24 11:36:25;;;;;;;15.55;9.95;;;;;;;11.81;87.23;100138.66;4953096;28;20051;-68
2021/12/24 11:38:57;;;;;;;24.03;18.00;;;;;;;11.68;87.47;100134.22;4938844;29;20067;-68
2021/12/24 11:41:29;;;;;;;43.63;24.10;;;;;;;11.81;88.17;100133.97;4920944;29;20060;-68
2021/12/24 11:43:57;;;;;;;55.95;26.95;;;;;;;11.77;87.40;100137.75;4938114;29;20539;-68
2021/12/24 11:46:26;;;;;;;26.35;16.33;;;;;;;11.86;87.53;100138.47;4937975;29;20059;-68
2021/12/24 11:48:55;;;;;;;18.98;12.65;;;;;;;11.75;87.75;100132.53;4937871;29;20056;-68
2021/12/24 11:51:26;;;;;;;15.07;10.60;;;;;;;11.60;88.51;100146.06;4938095;29;20043;-67
2021/12/24 11:53:58;;;;;;;16.95;10.70;;;;;;;11.69;88.45;100144.09;4937976;29;20063;-68
2021/12/24 11:56:25;;;;;;;18.48;10.38;;;;;;;11.50;88.95;100138.19;4936551;29;20063;-68
2021/12/24 11:58:55;;;;;;;18.10;10.02;;;;;;;11.39;89.65;100137.78;4936187;29;20051;-68
2021/12/24 12:01:25;;;;;;;18.13;10.75;;;;;;;11.62;88.89;100139.09;4937581;29;20058;-68
2021/12/24 12:03:57;;;;;;;20.50;12.00;;;;;;;11.62;89.17;100141.03;4921025;29;20061;-68
2021/12/24 12:06:25;;;;;;;19.38;12.13;;;;;;;11.67;88.36;100132.59;4919144;29;20060;-68
2021/12/24 12:08:54;;;;;;;17.05;10.63;;;;;;;11.65;87.75;100134.88;4918590;29;20484;-69
2021/12/24 12:11:28;;;;;;;17.47;10.47;;;;;;;11.57;88.54;100130.22;4917875;29;20447;-68
2021/12/24 12:14:17;;;;;;;16.42;10.93;;;;;;;11.70;88.34;100138.25;4918996;29;20292;-69
2021/12/24 12:16:56;;;;;;;19.38;10.60;;;;;;;11.41;89.31;100149.28;4918852;29;20051;-68
2021/12/24 12:19:38;;;;;;;17.13;10.18;;;;;;;11.38;89.93;100140.88;4918711;29;20052;-68
2021/12/24 12:22:16;;;;;;;18.85;11.52;;;;;;;11.36;90.53;100141.19;4903500;29;20075;-68
2021/12/24 12:25:09;;;;;;;17.92;11.10;;;;;;;11.28;90.78;100148.38;4918346;29;20063;-68
2021/12/24 12:27:54;;;;;;;20.45;11.55;;;;;;;11.24;90.99;100144.66;4886564;29;20048;-68
2021/12/24 12:30:39;;;;;;;19.80;10.95;;;;;;;11.11;92.05;100140.19;4919294;29;20051;-69
2021/12/24 12:33:09;;;;;;;18.77;11.68;;;;;;;11.09;92.68;100139.69;4918871;29;20067;-69
2021/12/24 12:35:50;;;;;;;;;;;;;;;11.03;93.18;100137.47;4919240;29;20052;-69
2021/12/24 12:38:33;;;;;;;17.85;11.30;;;;;;;11.10;93.01;100116.53;4918792;29;19923;-68
2021/12/24 12:41:35;;;;;;;17.15;11.48;;;;;;;11.04;93.23;100114.25;4918853;29;20062;-68
2021/12/24 12:44:08;;;;;;;19.70;11.27;;;;;;;11.32;93.22;100119.00;4917551;29;20051;-68
2021/12/24 12:46:39;;;;;;;18.40;11.50;;;;;;;11.38;91.61;100114.88;4916990;29;20052;-68
2021/12/24 12:49:08;;;;;;;24.63;16.17;;;;;;;11.46;91.59;100117.94;4918566;29;20055;-68
2021/12/24 12:52:04;;;;;;;46.40;32.20;;;;;;;11.59;91.05;100105.84;4918614;29;20048;-67
2021/12/24 12:54:37;;;;;;;23.60;15.70;;;;;;;11.79;90.44;100107.84;4918414;29;20063;-68
2021/12/24 12:57:22;;;;;;;43.53;32.10;;;;;;;11.71;90.34;100098.50;4918154;29;20075;-70
2021/12/24 13:00:07;;;;;;;18.10;13.05;;;;;;;11.72;89.52;100082.75;4918325;29;20048;-69
2021/12/24 13:02:56;;;;;;;21.88;11.10;;;;;;;11.43;90.79;100080.00;4922879;29;20051;-68